Terminal Aerodrome Forecast
Issued by NWS

Home | Current Version | Previous Version | Text Only | Print | Product List | Glossary On
Versions: 1 2 3 4 5 6 7 8 9 10 11 12 13 14 15 16 17 18 19 20 21 22 23 24 25
000
FTUS45 KREV 301100
TAFTRK
TAF
KTRK 301121Z 3012/3112 00000KT P6SM BCFG FEW001 SCT200
     FM301500 VRB03KT P6SM SCT200
     FM301900 22010G20KT P6SM FEW090 SCT200
     FM310400 20004KT P6SM BKN200=

USA.gov is the U.S. government's official web portal to all federal, state and local government web resources and services.